Time,TemperatureF,DewpointF,PressureIn,WindDirection,WindDirectionDegrees,WindSpeedMPH,WindSpeedGustMPH,Humidity,HourlyPrecipIn,Conditions,Clouds,dailyrainin,SoftwareType,DateUTC
2014-08-20 00:00:00,57.9,36.7,26.95,SE,141,0.0,0.0,45,0.00,CLR,,0.00,WeatherDisplay:10.37,2014-08-20 04:00:00,
2014-08-20 00:01:00,57.9,36.7,26.95,SE,140,0.0,0.0,45,0.00,CLR,,0.00,WeatherDisplay:10.37,2014-08-20 04:01:00,
2014-08-20 00:02:00,57.9,36.7,26.95,SE,141,0.0,0.0,45,0.00,CLR,,0.00,WeatherDisplay:10.37,2014-08-20 04:02:00,
2014-08-20 00:03:00,57.7,36.5,26.95,SE,141,0.0,0.0,45,0.00,CLR,,0.00,WeatherDisplay:10.37,2014-08-20 04:03:00,
2014-08-20 00:08:00,57.7,36.5,26.95,SE,141,0.0,0.0,45,0.00,CLR,,0.00,WeatherDisplay:10.37,2014-08-20 04:08:00,
2014-08-20 00:13:00,57.6,36.4,26.95,SE,141,0.0,0.0,45,0.00,CLR,,0.00,WeatherDisplay:10.37,2014-08-20 04:13:00,
2014-08-20 00:18:00,57.4,36.2,26.95,SE,141,0.0,0.0,45,0.00,CLR,,0.00,WeatherDisplay:10.37,2014-08-20 04:18:00,
2014-08-20 00:23:00,57.2,36.0,26.95,SE,141,0.0,0.0,45,0.00,CLR,,0.00,WeatherDisplay:10.37,2014-08-20 04:23:00,
2014-08-20 00:28:00,57.2,36.0,26.95,SE,141,0.0,0.0,45,0.00,CLR,,0.00,WeatherDisplay:10.37,2014-08-20 04:28:00,
2014-08-20 00:33:00,57.0,35.9,26.95,SE,141,0.0,0.0,45,0.00,CLR,,0.00,WeatherDisplay:10.37,2014-08-20 04:33:00,
2014-08-20 00:38:00,56.8,35.7,26.95,SE,141,0.0,0.0,45,0.00,CLR,,0.00,WeatherDisplay:10.37,2014-08-20 04:38:00,
2014-08-20 00:43:00,56.8,35.7,26.95,SE,141,0.0,0.0,45,0.00,CLR,,0.00,WeatherDisplay:10.37,2014-08-20 04:43:00,
2014-08-20 00:48:00,56.8,35.7,26.95,SE,141,0.0,0.0,45,0.00,CLR,,0.00,WeatherDisplay:10.37,2014-08-20 04:48:00,
2014-08-20 00:53:00,56.8,35.7,26.95,SE,141,0.0,0.0,45,0.00,CLR,,0.00,WeatherDisplay:10.37,2014-08-20 04:53:00,
2014-08-20 00:58:00,56.8,35.7,26.95,SE,141,0.0,0.0,45,0.00,CLR,,0.00,WeatherDisplay:10.37,2014-08-20 04:58:00,
2014-08-20 01:03:00,56.7,35.5,26.95,SE,141,0.0,0.0,45,0.00,CLR,,0.00,WeatherDisplay:10.37,2014-08-20 05:03:00,
2014-08-20 01:08:00,56.7,35.5,26.95,SE,141,0.0,0.0,45,0.00,CLR,,0.00,WeatherDisplay:10.37,2014-08-20 05:08:00,
2014-08-20 01:13:00,56.5,35.4,26.95,SE,141,0.0,0.0,45,0.00,CLR,,0.00,WeatherDisplay:10.37,2014-08-20 05:13:00,
2014-08-20 01:18:00,56.3,35.2,26.95,SE,141,0.0,0.0,45,0.00,CLR,,0.00,WeatherDisplay:10.37,2014-08-20 05:18:00,
2014-08-20 01:23:00,56.3,35.2,26.95,SE,141,0.0,0.0,45,0.00,CLR,,0.00,WeatherDisplay:10.37,2014-08-20 05:23:00,
2014-08-20 01:28:00,56.3,35.2,26.95,SE,141,0.0,0.0,45,0.00,CLR,,0.00,WeatherDisplay:10.37,2014-08-20 05:28:00,
2014-08-20 01:33:00,56.1,35.1,26.95,SE,141,0.0,0.0,45,0.00,CLR,,0.00,WeatherDisplay:10.37,2014-08-20 05:33:00,
2014-08-20 01:38:00,56.1,35.1,26.95,SE,141,0.0,0.0,45,0.00,CLR,,0.00,WeatherDisplay:10.37,2014-08-20 05:38:00,
2014-08-20 01:43:00,56.1,35.1,26.95,SE,141,0.0,0.0,45,0.00,CLR,,0.00,WeatherDisplay:10.37,2014-08-20 05:43:00,
2014-08-20 01:48:00,56.1,35.1,26.95,SE,141,0.0,0.0,45,0.00,CLR,,0.00,WeatherDisplay:10.37,2014-08-20 05:48:00,
2014-08-20 01:53:00,55.9,34.9,26.95,SE,141,0.0,0.0,45,0.00,CLR,,0.00,WeatherDisplay:10.37,2014-08-20 05:53:00,
2014-08-20 01:58:00,56.1,35.1,26.95,SE,141,0.0,0.0,45,0.00,CLR,,0.00,WeatherDisplay:10.37,2014-08-20 05:58:00,
2014-08-20 02:03:00,55.9,34.9,26.95,SE,141,0.0,0.0,45,0.00,CLR,,0.00,WeatherDisplay:10.37,2014-08-20 06:03:00,
2014-08-20 02:08:00,55.9,34.9,26.95,SE,141,0.0,0.0,45,0.00,CLR,,0.00,WeatherDisplay:10.37,2014-08-20 06:08:00,
2014-08-20 02:13:00,55.9,34.9,26.95,SE,141,0.0,0.0,45,0.00,CLR,,0.00,WeatherDisplay:10.37,2014-08-20 06:13:00,
2014-08-20 02:18:00,55.9,34.9,26.95,SE,141,0.0,0.0,45,0.00,CLR,,0.00,WeatherDisplay:10.37,2014-08-20 06:18:00,
2014-08-20 02:23:00,55.9,34.9,26.95,SE,141,0.0,0.0,45,0.00,CLR,,0.00,WeatherDisplay:10.37,2014-08-20 06:23:00,
2014-08-20 02:28:00,55.8,34.7,26.95,SE,141,0.0,0.0,45,0.00,CLR,,0.00,WeatherDisplay:10.37,2014-08-20 06:28:00,
2014-08-20 02:33:00,55.8,34.7,26.95,SE,141,0.0,0.0,45,0.00,CLR,,0.00,WeatherDisplay:10.37,2014-08-20 06:33:00,
2014-08-20 02:38:00,55.8,34.7,26.95,SE,141,0.0,0.0,45,0.00,CLR,,0.00,WeatherDisplay:10.37,2014-08-20 06:38:00,
2014-08-20 02:43:00,55.6,34.6,26.95,SE,141,0.0,0.0,45,0.00,CLR,,0.00,WeatherDisplay:10.37,2014-08-20 06:43:00,
2014-08-20 02:48:00,55.6,34.6,26.95,SE,141,0.0,0.0,45,0.00,CLR,,0.00,WeatherDisplay:10.37,2014-08-20 06:48:00,
2014-08-20 02:53:00,55.6,34.6,26.95,SE,141,0.0,0.0,45,0.00,CLR,,0.00,WeatherDisplay:10.37,2014-08-20 06:53:00,
2014-08-20 02:58:00,55.4,34.4,26.95,SE,141,0.0,0.0,45,0.00,CLR,,0.00,WeatherDisplay:10.37,2014-08-20 06:58:00,
2014-08-20 03:03:00,55.4,34.4,26.95,SE,141,0.0,0.0,45,0.00,CLR,,0.00,WeatherDisplay:10.37,2014-08-20 07:03:00,
2014-08-20 03:08:00,55.2,34.8,26.95,SE,141,0.0,0.0,46,0.00,CLR,,0.00,WeatherDisplay:10.37,2014-08-20 07:08:00,
2014-08-20 03:13:00,55.2,34.8,26.95,SE,141,0.0,0.0,46,0.00,CLR,,0.00,WeatherDisplay:10.37,2014-08-20 07:13:00,
2014-08-20 03:18:00,55.0,34.6,26.95,SE,141,0.0,0.0,46,0.00,CLR,,0.00,WeatherDisplay:10.37,2014-08-20 07:18:00,
2014-08-20 03:23:00,55.0,34.6,26.95,SE,141,0.0,0.0,46,0.00,CLR,,0.00,WeatherDisplay:10.37,2014-08-20 07:23:00,
2014-08-20 03:28:00,54.9,34.5,26.95,SE,141,0.0,0.0,46,0.00,CLR,,0.00,WeatherDisplay:10.37,2014-08-20 07:28:00,
2014-08-20 03:33:00,54.9,34.5,26.95,SE,141,0.0,0.0,46,0.00,CLR,,0.00,WeatherDisplay:10.37,2014-08-20 07:33:00,
2014-08-20 03:38:00,54.9,34.5,26.95,SE,141,0.0,0.0,46,0.00,CLR,,0.00,WeatherDisplay:10.37,2014-08-20 07:38:00,
2014-08-20 03:43:00,54.9,34.5,26.95,SE,141,0.0,0.0,46,0.00,CLR,,0.00,WeatherDisplay:10.37,2014-08-20 07:43:00,
2014-08-20 03:48:00,54.7,34.3,26.95,SE,141,0.0,0.0,46,0.00,CLR,,0.00,WeatherDisplay:10.37,2014-08-20 07:48:00,
2014-08-20 03:53:00,54.7,34.3,26.95,SE,141,0.0,0.0,46,0.00,CLR,,0.00,WeatherDisplay:10.37,2014-08-20 07:53:00,
2014-08-20 03:58:00,54.7,34.3,26.95,SE,141,0.0,0.0,46,0.00,CLR,,0.00,WeatherDisplay:10.37,2014-08-20 07:58:00,
2014-08-20 04:03:00,54.7,34.3,26.95,SE,141,0.0,0.0,46,0.00,CLR,,0.00,WeatherDisplay:10.37,2014-08-20 08:03:00,
2014-08-20 04:08:00,54.7,34.3,26.95,SE,141,0.0,0.0,46,0.00,CLR,,0.00,WeatherDisplay:10.37,2014-08-20 08:08:00,
2014-08-20 04:13:00,54.7,34.3,26.95,SE,141,0.0,0.0,46,0.00,CLR,,0.00,WeatherDisplay:10.37,2014-08-20 08:13:00,
2014-08-20 04:18:00,54.7,34.3,26.95,SE,141,0.0,0.0,46,0.00,CLR,,0.00,WeatherDisplay:10.37,2014-08-20 08:18:00,
2014-08-20 04:23:00,54.7,34.3,26.95,SE,141,0.0,0.0,46,0.00,CLR,,0.00,WeatherDisplay:10.37,2014-08-20 08:23:00,
2014-08-20 04:28:00,54.5,34.1,26.95,SE,141,0.0,0.0,46,0.00,CLR,,0.00,WeatherDisplay:10.37,2014-08-20 08:28:00,
2014-08-20 04:33:00,54.7,34.3,26.95,SE,141,0.0,0.0,46,0.00,CLR,,0.00,WeatherDisplay:10.37,2014-08-20 08:33:00,
2014-08-20 04:38:00,54.7,34.3,26.95,SE,141,0.0,0.0,46,0.00,CLR,,0.00,WeatherDisplay:10.37,2014-08-20 08:38:00,
2014-08-20 04:43:00,54.7,34.3,26.95,SE,141,0.0,0.0,46,0.00,CLR,,0.00,WeatherDisplay:10.37,2014-08-20 08:43:00,
2014-08-20 04:48:00,54.7,34.3,26.95,SE,141,0.0,0.0,46,0.00,CLR,,0.00,WeatherDisplay:10.37,2014-08-20 08:48:00,
2014-08-20 04:53:00,54.5,34.1,26.95,SE,141,0.0,0.0,46,0.00,CLR,,0.00,WeatherDisplay:10.37,2014-08-20 08:53:00,
2014-08-20 04:58:00,54.5,34.1,26.95,SE,141,0.0,0.0,46,0.00,CLR,,0.00,WeatherDisplay:10.37,2014-08-20 08:58:00,
2014-08-20 05:03:00,54.5,34.1,26.95,SE,141,0.0,0.0,46,0.00,CLR,,0.00,WeatherDisplay:10.37,2014-08-20 09:03:00,
2014-08-20 05:08:00,54.3,34.0,26.95,SE,141,0.0,0.0,46,0.00,CLR,,0.00,WeatherDisplay:10.37,2014-08-20 09:08:00,
2014-08-20 05:13:00,54.1,33.8,26.95,SE,141,0.0,0.0,46,0.00,CLR,,0.00,WeatherDisplay:10.37,2014-08-20 09:13:00,
2014-08-20 05:18:00,54.1,33.8,26.95,SE,141,0.0,0.0,46,0.00,CLR,,0.00,WeatherDisplay:10.37,2014-08-20 09:18:00,
2014-08-20 05:23:00,54.0,33.6,26.95,SE,141,0.0,0.0,46,0.00,CLR,,0.00,WeatherDisplay:10.37,2014-08-20 09:23:00,
2014-08-20 05:28:00,54.0,33.6,26.95,SE,141,0.0,0.0,46,0.00,CLR,,0.00,WeatherDisplay:10.37,2014-08-20 09:28:00,
2014-08-20 05:33:00,54.0,33.6,26.95,SE,141,0.0,0.0,46,0.00,CLR,,0.00,WeatherDisplay:10.37,2014-08-20 09:33:00,
2014-08-20 05:38:00,54.0,33.6,26.95,SE,141,0.0,0.0,46,0.00,CLR,,0.00,WeatherDisplay:10.37,2014-08-20 09:38:00,
2014-08-20 05:43:00,53.8,33.5,26.95,SE,141,0.0,0.0,46,0.00,CLR,,0.00,WeatherDisplay:10.37,2014-08-20 09:43:00,
2014-08-20 05:48:00,53.8,33.5,26.95,SE,141,0.0,0.0,46,0.00,CLR,,0.00,WeatherDisplay:10.37,2014-08-20 09:48:00,
2014-08-20 05:53:00,53.8,33.5,26.95,SE,141,0.0,0.0,46,0.00,CLR,,0.00,WeatherDisplay:10.37,2014-08-20 09:53:00,
2014-08-20 05:58:00,53.8,33.5,26.95,SE,141,0.0,0.0,46,0.00,CLR,,0.00,WeatherDisplay:10.37,2014-08-20 09:58:00,
2014-08-20 06:03:00,53.6,33.3,26.95,SE,141,0.0,0.0,46,0.00,CLR,,0.00,WeatherDisplay:10.37,2014-08-20 10:03:00,
2014-08-20 06:08:00,53.8,33.5,26.95,SE,141,0.0,0.0,46,0.00,CLR,,0.00,WeatherDisplay:10.37,2014-08-20 10:08:00,
2014-08-20 06:13:00,53.8,33.5,26.95,SE,141,0.0,0.0,46,0.00,CLR,,0.00,WeatherDisplay:10.37,2014-08-20 10:13:00,
2014-08-20 06:18:00,53.8,33.5,26.95,SE,141,0.0,0.0,46,0.00,CLR,,0.00,WeatherDisplay:10.37,2014-08-20 10:18:00,
2014-08-20 06:23:00,53.8,33.5,26.95,SE,141,0.0,0.0,46,0.00,CLR,,0.00,WeatherDisplay:10.37,2014-08-20 10:23:00,
2014-08-20 06:28:00,53.8,33.5,26.95,SE,141,0.0,0.0,46,0.00,CLR,,0.00,WeatherDisplay:10.37,2014-08-20 10:28:00,
2014-08-20 06:33:00,54.0,33.6,26.95,SE,141,0.0,0.0,46,0.00,CLR,,0.00,WeatherDisplay:10.37,2014-08-20 10:33:00,
2014-08-20 06:38:00,54.0,33.6,26.95,SE,141,0.0,0.0,46,0.00,CLR,,0.00,WeatherDisplay:10.37,2014-08-20 10:38:00,
2014-08-20 06:43:00,54.1,33.8,26.95,SE,141,0.0,0.0,46,0.00,CLR,,0.00,WeatherDisplay:10.37,2014-08-20 10:43:00,
2014-08-20 06:48:00,54.3,34.0,26.95,SE,141,0.0,0.0,46,0.00,CLR,,0.00,WeatherDisplay:10.37,2014-08-20 10:48:00,
2014-08-20 06:53:00,54.5,34.1,26.95,SE,141,0.0,0.0,46,0.00,CLR,,0.00,WeatherDisplay:10.37,2014-08-20 10:53:00,
2014-08-20 06:58:00,54.7,34.3,26.95,SE,141,0.0,0.0,46,0.00,CLR,,0.00,WeatherDisplay:10.37,2014-08-20 10:58:00,
2014-08-20 07:03:00,55.0,34.6,26.95,SE,141,0.0,0.0,46,0.00,CLR,,0.00,WeatherDisplay:10.37,2014-08-20 11:03:00,
2014-08-20 07:08:00,55.6,35.1,26.95,SE,141,0.0,0.0,46,0.00,CLR,,0.00,WeatherDisplay:10.37,2014-08-20 11:08:00,
2014-08-20 07:13:00,55.9,35.4,26.95,SE,141,0.0,0.0,46,0.00,CLR,,0.00,WeatherDisplay:10.37,2014-08-20 11:13:00,
2014-08-20 07:18:00,56.3,35.8,26.95,SE,141,0.0,0.0,46,0.00,CLR,,0.00,WeatherDisplay:10.37,2014-08-20 11:18:00,
2014-08-20 07:23:00,56.7,36.1,26.95,SE,141,0.0,0.0,46,0.00,CLR,,0.00,WeatherDisplay:10.37,2014-08-20 11:23:00,
2014-08-20 07:28:00,56.8,36.3,26.95,SE,141,0.0,0.0,46,0.00,CLR,,0.00,WeatherDisplay:10.37,2014-08-20 11:28:00,
2014-08-20 07:33:00,57.2,36.6,26.95,SE,141,0.0,0.0,46,0.00,CLR,,0.00,WeatherDisplay:10.37,2014-08-20 11:33:00,
2014-08-20 07:38:00,57.6,36.9,26.95,SE,141,0.0,0.0,46,0.00,CLR,,0.00,WeatherDisplay:10.37,2014-08-20 11:38:00,
2014-08-20 07:43:00,57.9,37.2,26.95,SE,141,0.0,0.0,46,0.00,CLR,,0.00,WeatherDisplay:10.37,2014-08-20 11:43:00,
2014-08-20 07:48:00,58.6,37.9,26.95,SE,141,0.0,0.0,46,0.00,CLR,,0.00,WeatherDisplay:10.37,2014-08-20 11:48:00,
2014-08-20 07:53:00,59.4,38.6,26.95,SE,141,0.0,0.0,46,0.00,CLR,,0.00,WeatherDisplay:10.37,2014-08-20 11:53:00,
2014-08-20 07:58:00,60.1,39.2,26.95,SE,141,0.0,0.0,46,0.00,CLR,,0.00,WeatherDisplay:10.37,2014-08-20 11:58:00,
2014-08-20 08:03:00,60.6,39.7,26.95,SE,141,0.0,0.0,46,0.00,CLR,,0.00,WeatherDisplay:10.37,2014-08-20 12:03:00,
2014-08-20 08:08:00,61.2,39.6,26.95,SE,141,0.0,0.0,45,0.00,CLR,,0.00,WeatherDisplay:10.37,2014-08-20 12:08:00,
2014-08-20 08:13:00,61.7,40.1,26.95,SE,141,0.0,0.0,45,0.00,CLR,,0.00,WeatherDisplay:10.37,2014-08-20 12:13:00,
2014-08-20 08:18:00,62.4,40.8,26.95,SE,141,0.0,0.0,45,0.00,CLR,,0.00,WeatherDisplay:10.37,2014-08-20 12:18:00,
2014-08-20 08:23:00,63.0,41.3,26.95,SE,141,0.0,0.0,45,0.00,CLR,,0.00,WeatherDisplay:10.37,2014-08-20 12:23:00,
2014-08-20 08:28:00,63.3,41.0,26.95,SE,141,0.0,0.0,44,0.00,CLR,,0.00,WeatherDisplay:10.37,2014-08-20 12:28:00,
2014-08-20 08:33:00,63.9,41.5,26.95,SE,141,0.0,0.0,44,0.00,CLR,,0.00,WeatherDisplay:10.37,2014-08-20 12:33:00,
2014-08-20 08:38:00,64.2,41.8,26.95,SE,141,0.0,0.0,44,0.00,CLR,,0.00,WeatherDisplay:10.37,2014-08-20 12:38:00,
2014-08-20 08:43:00,64.4,42.0,26.95,SE,141,0.0,0.0,44,0.00,CLR,,0.00,WeatherDisplay:10.37,2014-08-20 12:43:00,
2014-08-20 08:48:00,64.6,41.6,26.95,SE,141,0.0,0.0,43,0.00,CLR,,0.00,WeatherDisplay:10.37,2014-08-20 12:48:00,
2014-08-20 08:53:00,64.8,40.5,26.95,SSE,159,0.0,0.0,41,0.00,CLR,,0.00,WeatherDisplay:10.37,2014-08-20 12:53:00,
2014-08-20 08:58:00,65.5,41.8,26.95,SSE,159,0.0,0.0,42,0.00,CLR,,0.00,WeatherDisplay:10.37,2014-08-20 12:58:00,
2014-08-20 09:03:00,65.7,40.0,26.95,SSE,159,0.0,0.0,39,0.00,CLR,,0.00,WeatherDisplay:10.37,2014-08-20 13:03:00,
2014-08-20 09:08:00,66.0,39.0,26.95,SSE,159,0.0,0.0,37,0.00,CLR,,0.00,WeatherDisplay:10.37,2014-08-20 13:08:00,
2014-08-20 09:13:00,66.4,39.3,26.95,SSE,159,0.0,0.0,37,0.00,CLR,,0.00,WeatherDisplay:10.37,2014-08-20 13:13:00,
2014-08-20 09:18:00,66.7,38.2,26.95,SSE,159,0.0,0.0,35,0.00,CLR,,0.00,WeatherDisplay:10.37,2014-08-20 13:18:00,
2014-08-20 09:23:00,67.1,39.2,26.95,SSE,159,0.0,0.0,36,0.00,CLR,,0.00,WeatherDisplay:10.37,2014-08-20 13:23:00,
2014-08-20 09:28:00,67.5,38.8,26.95,East,89,0.0,0.0,35,0.00,CLR,,0.00,WeatherDisplay:10.37,2014-08-20 13:28:00,
2014-08-20 09:33:00,68.0,38.6,26.95,SE,146,0.0,0.0,34,0.00,CLR,,0.00,WeatherDisplay:10.37,2014-08-20 13:33:00,
2014-08-20 09:38:00,68.5,39.8,26.95,SE,146,0.0,0.0,35,0.00,CLR,,0.00,WeatherDisplay:10.37,2014-08-20 13:38:00,
2014-08-20 09:43:00,68.7,39.2,26.95,ESE,107,0.0,0.0,34,0.00,CLR,,0.00,WeatherDisplay:10.37,2014-08-20 13:43:00,
2014-08-20 09:48:00,69.1,39.5,26.95,NNE,28,0.0,0.0,34,0.00,CLR,,0.00,WeatherDisplay:10.37,2014-08-20 13:48:00,
2014-08-20 09:53:00,69.4,39.8,26.95,NNE,29,0.0,0.0,34,0.00,CLR,,0.00,WeatherDisplay:10.37,2014-08-20 13:53:00,
2014-08-20 09:58:00,69.8,40.2,26.95,SE,124,0.0,0.0,34,0.00,CLR,,0.00,WeatherDisplay:10.37,2014-08-20 13:58:00,
2014-08-20 10:03:00,70.3,40.6,26.95,ESE,120,0.0,0.0,34,0.00,CLR,,0.00,WeatherDisplay:10.37,2014-08-20 14:03:00,
2014-08-20 10:08:00,70.7,40.2,26.95,ENE,74,2.3,0.0,33,0.00,CLR,,0.00,WeatherDisplay:10.37,2014-08-20 14:08:00,
2014-08-20 10:13:00,70.9,40.3,26.95,ENE,74,0.0,0.0,33,0.00,CLR,,0.00,WeatherDisplay:10.37,2014-08-20 14:13:00,
2014-08-20 10:18:00,71.4,40.0,26.95,ESE,110,3.5,0.0,32,0.00,CLR,,0.00,WeatherDisplay:10.37,2014-08-20 14:18:00,
2014-08-20 10:23:00,71.8,40.3,26.95,ESE,116,0.0,0.0,32,0.00,CLR,,0.00,WeatherDisplay:10.37,2014-08-20 14:23:00,
2014-08-20 10:28:00,72.1,40.6,26.95,NNW,346,0.0,0.0,32,0.00,CLR,,0.00,WeatherDisplay:10.37,2014-08-20 14:28:00,
2014-08-20 10:33:00,72.3,40.8,26.95,SE,128,0.0,0.0,32,0.00,CLR,,0.00,WeatherDisplay:10.37,2014-08-20 14:33:00,
2014-08-20 10:38:00,72.7,40.3,26.95,ESE,120,0.0,0.0,31,0.00,CLR,,0.00,WeatherDisplay:10.37,2014-08-20 14:38:00,
2014-08-20 10:43:00,72.9,40.4,26.95,ENE,65,3.5,0.0,31,0.00,CLR,,0.00,WeatherDisplay:10.37,2014-08-20 14:43:00,
2014-08-20 10:48:00,73.2,40.8,26.95,ENE,66,0.0,0.0,31,0.00,CLR,,0.00,WeatherDisplay:10.37,2014-08-20 14:48:00,
2014-08-20 10:53:00,73.6,41.1,26.95,ENE,69,0.0,0.0,31,0.00,CLR,,0.00,WeatherDisplay:10.37,2014-08-20 14:53:00,
2014-08-20 10:58:00,73.8,38.6,26.95,SE,124,0.0,0.0,28,0.00,CLR,,0.00,WeatherDisplay:10.37,2014-08-20 14:58:00,
2014-08-20 11:03:00,74.1,38.9,26.95,NNE,31,3.5,3.5,28,0.00,CLR,,0.00,WeatherDisplay:10.37,2014-08-20 15:03:00,
2014-08-20 11:08:00,74.5,39.2,26.95,NNE,33,3.5,3.5,28,0.00,CLR,,0.00,WeatherDisplay:10.37,2014-08-20 15:08:00,
2014-08-20 11:13:00,74.7,39.4,26.95,ESE,115,2.3,0.0,28,0.00,CLR,,0.00,WeatherDisplay:10.37,2014-08-20 15:13:00,
2014-08-20 11:18:00,76.1,37.7,26.95,ESE,111,0.0,0.0,25,0.00,CLR,,0.00,WeatherDisplay:10.37,2014-08-20 15:18:00,
2014-08-20 11:23:00,78.6,39.8,26.95,SE,139,2.3,0.0,25,0.00,CLR,,0.00,WeatherDisplay:10.37,2014-08-20 15:23:00,
2014-08-20 11:28:00,78.1,39.4,26.95,ESE,104,2.3,0.0,25,0.00,CLR,,0.00,WeatherDisplay:10.37,2014-08-20 15:28:00,
2014-08-20 11:33:00,77.7,39.1,26.95,East,97,3.5,0.0,25,0.00,CLR,,0.00,WeatherDisplay:10.37,2014-08-20 15:33:00,
2014-08-20 11:38:00,77.5,38.9,26.95,SE,137,0.0,0.0,25,0.00,CLR,,0.00,WeatherDisplay:10.37,2014-08-20 15:38:00,
2014-08-20 11:43:00,77.7,39.1,26.95,SE,138,0.0,0.0,25,0.00,CLR,,0.00,WeatherDisplay:10.37,2014-08-20 15:43:00,
2014-08-20 11:48:00,77.9,39.2,26.95,ENE,71,3.5,0.0,25,0.00,CLR,,0.00,WeatherDisplay:10.37,2014-08-20 15:48:00,
2014-08-20 11:53:00,76.3,37.9,26.95,NE,37,0.0,0.0,25,0.00,CLR,,0.00,WeatherDisplay:10.37,2014-08-20 15:53:00,
2014-08-20 11:58:00,76.3,37.9,26.95,NE,45,3.5,0.0,25,0.00,CLR,,0.00,WeatherDisplay:10.37,2014-08-20 15:58:00,
2014-08-20 12:03:00,79.3,40.4,26.95,East,95,2.3,0.0,25,0.00,CLR,,0.00,WeatherDisplay:10.37,2014-08-20 16:03:00,
2014-08-20 12:08:00,85.6,43.6,26.95,ESE,102,0.0,0.0,23,0.00,CLR,,0.00,WeatherDisplay:10.37,2014-08-20 16:08:00,
2014-08-20 12:13:00,86.7,42.1,26.95,SSW,193,3.5,3.5,21,0.00,CLR,,0.00,WeatherDisplay:10.37,2014-08-20 16:13:00,
2014-08-20 12:18:00,87.8,41.7,26.95,North,357,0.0,0.0,20,0.00,CLR,,0.00,WeatherDisplay:10.37,2014-08-20 16:18:00,
2014-08-20 12:23:00,93.4,45.0,26.95,North,357,0.0,0.0,19,0.00,CLR,,0.00,WeatherDisplay:10.37,2014-08-20 16:23:00,
2014-08-20 12:28:00,91.8,43.6,26.95,ESE,109,2.3,0.0,19,0.00,CLR,,0.00,WeatherDisplay:10.37,2014-08-20 16:28:00,
2014-08-20 12:33:00,90.0,43.5,26.95,North,5,0.0,0.0,20,0.00,CLR,,0.00,WeatherDisplay:10.37,2014-08-20 16:33:00,
2014-08-20 12:38:00,87.8,41.7,26.95,ESE,123,0.0,0.0,20,0.00,CLR,,0.00,WeatherDisplay:10.37,2014-08-20 16:38:00,
2014-08-20 12:43:00,84.7,40.5,26.95,SE,135,2.3,0.0,21,0.00,CLR,,0.00,WeatherDisplay:10.37,2014-08-20 16:43:00,
2014-08-20 12:48:00,81.7,39.1,26.95,SE,135,0.0,0.0,22,0.00,CLR,,0.00,WeatherDisplay:10.37,2014-08-20 16:48:00,
2014-08-20 12:53:00,82.0,39.4,26.95,SE,144,0.0,0.0,22,0.00,CLR,,0.00,WeatherDisplay:10.37,2014-08-20 16:53:00,
2014-08-20 12:58:00,83.3,39.3,26.95,SE,144,0.0,0.0,21,0.00,CLR,,0.00,WeatherDisplay:10.37,2014-08-20 16:58:00,
2014-08-20 13:03:00,81.7,39.1,26.95,ENE,77,0.0,0.0,22,0.00,CLR,,0.00,WeatherDisplay:10.37,2014-08-20 17:03:00,
2014-08-20 13:08:00,84.2,40.0,26.95,ENE,70,0.0,0.0,21,0.00,CLR,,0.00,WeatherDisplay:10.37,2014-08-20 17:08:00,
2014-08-20 13:13:00,85.1,40.8,26.95,ENE,76,3.5,0.0,21,0.00,CLR,,0.00,WeatherDisplay:10.37,2014-08-20 17:13:00,
2014-08-20 13:18:00,83.5,39.4,26.95,East,84,3.5,3.5,21,0.00,CLR,,0.00,WeatherDisplay:10.37,2014-08-20 17:18:00,
2014-08-20 13:23:00,81.9,39.3,26.95,WNW,288,2.3,0.0,22,0.00,CLR,,0.00,WeatherDisplay:10.37,2014-08-20 17:23:00,
2014-08-20 13:28:00,80.2,37.9,26.95,WNW,284,0.0,0.0,22,0.00,CLR,,0.00,WeatherDisplay:10.37,2014-08-20 17:28:00,
2014-08-20 13:33:00,82.6,38.7,26.95,East,82,3.5,3.5,21,0.00,CLR,,0.00,WeatherDisplay:10.37,2014-08-20 17:33:00,